createdAt,value
2018-12-05T00:01:56.527Z,16.27
2018-12-05T00:04:24.426Z,19.03
2018-12-05T00:06:52.269Z,21.47
2018-12-05T00:09:20.106Z,23.10
2018-12-05T00:11:47.945Z,18.27
2018-12-05T00:14:15.793Z,18.87
2018-12-05T00:16:43.642Z,19.30
2018-12-05T00:19:11.542Z,15.60
2018-12-05T00:21:39.414Z,19.50
2018-12-05T00:24:08.897Z,19.57
2018-12-05T00:26:37.146Z,18.17
2018-12-05T00:29:05.074Z,19.37
2018-12-05T00:31:32.965Z,17.27
2018-12-05T00:34:00.880Z,19.17
2018-12-05T00:36:28.743Z,13.53
2018-12-05T00:38:56.607Z,19.07
2018-12-05T00:41:24.445Z,16.97
2018-12-05T00:43:52.290Z,15.30
2018-12-05T00:46:20.130Z,21.27
2018-12-05T00:48:48.002Z,19.00
2018-12-05T00:51:15.825Z,21.27
2018-12-05T00:53:43.700Z,21.67
2018-12-05T00:56:11.638Z,21.87
2018-12-05T00:58:39.514Z,21.87
2018-12-05T01:01:07.361Z,21.27
2018-12-05T01:03:35.223Z,16.37
2018-12-05T01:06:03.173Z,20.97
2018-12-05T01:08:31.064Z,15.60
2018-12-05T01:10:59.050Z,19.87
2018-12-05T01:13:26.891Z,14.97
2018-12-05T01:15:54.909Z,23.27
2018-12-05T01:18:22.790Z,17.73
2018-12-05T01:20:50.646Z,19.10
2018-12-05T01:23:18.503Z,19.60
2018-12-05T01:25:46.370Z,22.40
2018-12-05T01:28:14.283Z,18.20
2018-12-05T01:30:42.158Z,18.30
2018-12-05T01:33:10.013Z,17.93
2018-12-05T01:35:37.861Z,18.20
2018-12-05T01:38:06.255Z,16.67
2018-12-05T01:40:34.132Z,16.87
2018-12-05T01:43:02.093Z,18.00
2018-12-05T01:45:29.956Z,18.27
2018-12-05T01:47:57.819Z,15.63
2018-12-05T01:50:25.683Z,17.37
2018-12-05T01:52:53.548Z,17.80
2018-12-05T01:55:21.386Z,14.70
2018-12-05T01:57:49.233Z,16.83
2018-12-05T02:00:17.091Z,21.00
2018-12-05T02:02:44.918Z,15.50
2018-12-05T02:05:12.970Z,14.17
2018-12-05T02:07:40.812Z,16.87
2018-12-05T02:10:08.705Z,16.10
2018-12-05T02:12:36.567Z,22.73
2018-12-05T02:15:04.686Z,19.60
2018-12-05T02:17:32.538Z,16.83
2018-12-05T02:20:00.399Z,16.00
2018-12-05T02:22:28.282Z,17.17
2018-12-05T02:24:56.187Z,17.70
2018-12-05T02:27:24.050Z,17.80
2018-12-05T02:29:57.876Z,22.77
2018-12-05T02:32:25.833Z,20.57
2018-12-05T02:34:53.678Z,18.53
2018-12-05T02:37:21.566Z,16.83
2018-12-05T02:39:49.439Z,19.93
2018-12-05T02:42:17.354Z,22.87
2018-12-05T02:44:45.250Z,19.20
2018-12-05T02:47:13.197Z,17.80
2018-12-05T02:49:41.048Z,18.53
2018-12-05T02:52:09.012Z,18.87
2018-12-05T02:54:36.867Z,19.80
2018-12-05T02:57:04.745Z,17.80
2018-12-05T02:59:32.619Z,17.23
2018-12-05T03:02:00.561Z,17.33
2018-12-05T03:04:28.434Z,18.93
2018-12-05T03:06:56.289Z,21.43
2018-12-05T03:09:24.168Z,25.90
2018-12-05T03:11:52.002Z,19.90
2018-12-05T03:14:19.937Z,27.17
2018-12-05T03:16:47.845Z,17.30
2018-12-05T03:19:15.872Z,16.53
2018-12-05T03:21:43.729Z,18.93
2018-12-05T03:24:11.645Z,19.43
2018-12-05T03:26:39.518Z,18.33
2018-12-05T03:29:07.370Z,19.43
2018-12-05T03:31:35.215Z,18.07
2018-12-05T03:34:03.073Z,17.23
2018-12-05T03:36:30.956Z,17.77
2018-12-05T03:38:58.807Z,22.30
2018-12-05T03:41:26.660Z,15.90
2018-12-05T03:43:54.511Z,18.50
2018-12-05T03:46:22.426Z,18.37
2018-12-05T03:48:50.264Z,19.03
2018-12-05T03:51:18.109Z,18.53
2018-12-05T03:53:45.962Z,17.10
2018-12-05T03:56:13.885Z,17.70
2018-12-05T03:58:41.748Z,19.73
2018-12-05T04:01:09.691Z,20.00
2018-12-05T04:03:37.542Z,18.83
2018-12-05T04:06:05.408Z,20.17
2018-12-05T04:08:33.282Z,16.27
2018-12-05T04:11:01.149Z,20.40
2018-12-05T04:13:29.024Z,13.03
2018-12-05T04:15:56.879Z,18.37
2018-12-05T04:18:25.198Z,19.67
2018-12-05T04:20:53.081Z,17.90
2018-12-05T04:23:20.933Z,15.07
2018-12-05T04:25:48.789Z,14.57
2018-12-05T04:28:16.622Z,16.17
2018-12-05T04:30:44.476Z,11.23
2018-12-05T04:33:12.379Z,16.70
2018-12-05T04:35:40.213Z,11.53
2018-12-05T04:38:08.049Z,11.67
2018-12-05T04:40:35.924Z,12.43
2018-12-05T04:43:04.002Z,10.87
2018-12-05T04:45:31.834Z,10.80
2018-12-05T04:47:59.702Z,13.03
2018-12-05T04:50:27.604Z,13.57
2018-12-05T04:52:55.442Z,12.30
2018-12-05T04:55:23.294Z,10.00
2018-12-05T04:57:51.127Z,13.87
2018-12-05T05:00:18.983Z,9.17
2018-12-05T05:02:46.831Z,11.90
2018-12-05T05:05:14.677Z,9.30
2018-12-05T05:07:42.565Z,9.10
2018-12-05T05:10:12.531Z,8.47
2018-12-05T05:12:40.448Z,14.90
2018-12-05T05:15:08.313Z,10.00
2018-12-05T05:17:36.521Z,7.93
2018-12-05T05:20:04.461Z,8.97
2018-12-05T05:22:32.370Z,9.67
2018-12-05T05:25:00.228Z,10.13
2018-12-05T05:27:28.107Z,12.90
2018-12-05T05:29:55.961Z,16.70
2018-12-05T05:32:23.879Z,11.97
2018-12-05T05:34:51.736Z,12.90
2018-12-05T05:37:19.561Z,13.23
2018-12-05T05:39:47.408Z,11.87
2018-12-05T05:42:15.278Z,14.97
2018-12-05T05:44:43.194Z,11.90
2018-12-05T05:47:11.990Z,14.20
2018-12-05T05:49:39.878Z,10.57
2018-12-05T05:52:07.697Z,10.10
2018-12-05T05:54:35.598Z,13.00
2018-12-05T05:57:03.453Z,14.47
2018-12-05T05:59:31.311Z,11.60
2018-12-05T06:01:59.222Z,11.63
2018-12-05T06:04:27.074Z,14.60
2018-12-05T06:06:54.929Z,11.80
2018-12-05T06:09:22.787Z,9.53
2018-12-05T06:11:50.875Z,9.83
2018-12-05T06:14:18.763Z,10.20
2018-12-05T06:16:46.689Z,10.87
2018-12-05T06:19:14.554Z,10.37
2018-12-05T06:21:42.482Z,10.67
2018-12-05T06:24:10.306Z,9.73
2018-12-05T06:26:38.689Z,10.67
2018-12-05T06:29:06.552Z,11.80
2018-12-05T06:31:34.408Z,11.03
2018-12-05T06:34:02.291Z,11.57
2018-12-05T06:36:30.155Z,10.27
2018-12-05T06:38:59.487Z,14.43
2018-12-05T06:41:27.709Z,10.73
2018-12-05T06:43:55.557Z,11.23
2018-12-05T06:46:23.417Z,12.07
2018-12-05T06:48:51.324Z,11.17
2018-12-05T06:51:19.176Z,8.60
2018-12-05T06:53:47.029Z,8.10
2018-12-05T06:56:14.882Z,7.50
2018-12-05T06:58:43.295Z,9.83
2018-12-05T07:01:11.179Z,8.47
2018-12-05T07:03:39.042Z,9.70
2018-12-05T07:06:06.906Z,15.50
2018-12-05T07:08:34.806Z,14.23
2018-12-05T07:11:02.675Z,18.57
2018-12-05T07:13:30.570Z,17.10
2018-12-05T07:15:58.542Z,17.37
2018-12-05T07:18:26.487Z,18.97
2018-12-05T07:20:54.320Z,17.37
2018-12-05T07:23:22.181Z,17.93
2018-12-05T07:25:50.065Z,16.80
2018-12-05T07:28:17.914Z,17.17
2018-12-05T07:30:45.844Z,19.60
2018-12-05T07:33:13.758Z,18.33
2018-12-05T07:35:41.594Z,25.97
2018-12-05T07:38:09.546Z,17.93
2018-12-05T07:40:37.464Z,23.90
2018-12-05T07:43:05.419Z,23.83
2018-12-05T07:45:33.377Z,18.40
2018-12-05T07:48:01.360Z,22.17
2018-12-05T07:50:29.282Z,19.50
2018-12-05T07:52:57.300Z,22.13
2018-12-05T07:55:25.107Z,20.77
2018-12-05T07:57:52.966Z,20.00
2018-12-05T08:00:20.830Z,18.43
2018-12-05T08:02:48.756Z,19.47
2018-12-05T08:05:16.611Z,18.43
2018-12-05T08:07:44.464Z,16.97
2018-12-05T08:10:12.450Z,21.20
2018-12-05T08:12:40.288Z,16.07
2018-12-05T08:15:08.689Z,24.97
2018-12-05T08:17:36.539Z,20.43
2018-12-05T08:20:04.790Z,23.60
2018-12-05T08:22:32.670Z,29.37
2018-12-05T08:25:00.523Z,21.17
2018-12-05T08:27:28.363Z,30.57
2018-12-05T08:29:56.240Z,32.73
2018-12-05T08:32:24.099Z,25.03
2018-12-05T08:34:52.023Z,30.53
2018-12-05T08:37:19.868Z,32.37
2018-12-05T08:39:47.718Z,36.13
2018-12-05T08:42:15.553Z,33.83
2018-12-05T08:44:43.451Z,29.53
2018-12-05T08:47:11.346Z,31.57
2018-12-05T08:49:39.190Z,33.90
2018-12-05T08:52:08.013Z,42.67
2018-12-05T08:54:35.863Z,37.50
2018-12-05T08:57:03.721Z,29.07
2018-12-05T08:59:31.558Z,34.77
2018-12-05T09:01:59.419Z,33.80
2018-12-05T09:04:27.342Z,36.10
2018-12-05T09:06:55.226Z,39.90
2018-12-05T09:09:23.102Z,39.27
2018-12-05T09:11:50.982Z,41.00
2018-12-05T09:14:18.939Z,36.77
2018-12-05T09:16:46.952Z,38.50
2018-12-05T09:19:14.803Z,43.60
2018-12-05T09:21:42.669Z,36.23
2018-12-05T09:24:10.515Z,38.07
2018-12-05T09:26:38.464Z,44.10
2018-12-05T09:29:06.330Z,40.07
2018-12-05T09:31:34.248Z,40.97
2018-12-05T09:34:02.254Z,42.67
2018-12-05T09:36:30.098Z,36.97
2018-12-05T09:38:58.119Z,39.97
2018-12-05T09:41:25.984Z,38.90
2018-12-05T09:43:53.831Z,38.70
2018-12-05T09:46:21.688Z,39.13
2018-12-05T09:48:49.676Z,39.53
2018-12-05T09:51:17.526Z,39.67
2018-12-05T09:53:45.644Z,44.83
2018-12-05T09:56:13.628Z,45.87
2018-12-05T09:58:41.516Z,43.40
2018-12-05T10:01:09.374Z,42.80
2018-12-05T10:03:37.224Z,42.53
2018-12-05T10:06:05.078Z,49.97
2018-12-05T10:08:32.961Z,48.43
2018-12-05T10:11:01.281Z,48.20
2018-12-05T10:13:29.242Z,48.07
2018-12-05T10:15:57.143Z,42.73
2018-12-05T10:18:27.721Z,43.67
2018-12-05T10:20:56.123Z,42.47
2018-12-05T10:23:24.488Z,47.60
2018-12-05T10:25:52.422Z,51.10
2018-12-05T10:28:20.303Z,50.60
2018-12-05T10:30:48.197Z,51.00
2018-12-05T10:33:16.040Z,52.77
2018-12-05T10:35:44.056Z,45.93
2018-12-05T10:38:11.951Z,53.13
2018-12-05T10:40:39.841Z,44.07
2018-12-05T10:43:07.912Z,62.00
2018-12-05T10:45:35.789Z,42.47
2018-12-05T10:48:03.831Z,38.17
2018-12-05T10:50:31.722Z,48.97
2018-12-05T10:52:59.624Z,50.77
2018-12-05T10:55:27.510Z,47.73
2018-12-05T10:57:55.358Z,40.37
2018-12-05T11:00:28.438Z,47.03
2018-12-05T11:03:01.569Z,46.07
2018-12-05T11:06:34.975Z,46.50
2018-12-05T11:09:08.063Z,37.20
2018-12-05T11:11:41.212Z,40.13
2018-12-05T11:14:14.669Z,58.53
2018-12-05T11:16:49.581Z,27.20
2018-12-05T11:19:22.489Z,18.73
2018-12-05T11:21:55.690Z,22.70
2018-12-05T11:24:28.736Z,24.33
2018-12-05T11:26:56.734Z,21.23
2018-12-05T11:29:24.766Z,26.43
2018-12-05T11:31:52.648Z,20.77
2018-12-05T11:34:20.522Z,22.83
2018-12-05T11:36:48.424Z,26.00
2018-12-05T11:39:16.239Z,17.33
2018-12-05T11:41:44.341Z,25.53
2018-12-05T11:44:12.366Z,24.33
2018-12-05T11:46:40.391Z,26.13
2018-12-05T11:49:08.263Z,26.10
2018-12-05T11:51:36.142Z,24.30
2018-12-05T11:54:04.142Z,22.43
2018-12-05T11:56:31.985Z,25.07
2018-12-05T11:58:59.851Z,25.60
2018-12-05T12:01:28.106Z,24.43
2018-12-05T12:03:55.970Z,21.67
2018-12-05T12:06:23.795Z,26.80
2018-12-05T12:08:51.631Z,18.33
2018-12-05T12:11:19.557Z,22.97
2018-12-05T12:13:47.486Z,22.20
2018-12-05T12:16:15.354Z,23.43
2018-12-05T12:18:43.308Z,18.73
2018-12-05T12:21:11.160Z,22.13
2018-12-05T12:23:39.041Z,16.17
2018-12-05T12:26:06.935Z,14.70
2018-12-05T12:28:34.816Z,22.03
2018-12-05T12:31:02.731Z,18.77
2018-12-05T12:33:30.616Z,11.10
2018-12-05T12:35:58.539Z,9.93
2018-12-05T12:38:26.477Z,11.63
2018-12-05T12:40:54.357Z,18.17
2018-12-05T12:43:22.249Z,12.57
2018-12-05T12:45:50.156Z,10.70
2018-12-05T12:48:18.243Z,12.67
2018-12-05T12:50:46.573Z,7.87
2018-12-05T12:53:14.534Z,7.53
2018-12-05T12:55:42.609Z,11.23
2018-12-05T12:58:10.486Z,9.33
2018-12-05T13:00:38.315Z,5.93
2018-12-05T13:03:06.184Z,12.77
2018-12-05T13:05:34.071Z,11.50
2018-12-05T13:08:01.961Z,8.30
2018-12-05T13:10:29.909Z,8.43
2018-12-05T13:12:57.841Z,10.67
2018-12-05T13:15:25.997Z,9.87
2018-12-05T13:17:53.905Z,11.73
2018-12-05T13:20:21.826Z,8.67
2018-12-05T13:22:49.970Z,8.73
2018-12-05T13:25:17.867Z,14.73
2018-12-05T13:27:46.035Z,12.03
2018-12-05T13:30:13.953Z,9.07
2018-12-05T13:32:41.852Z,9.10
2018-12-05T13:35:09.767Z,14.87
2018-12-05T13:37:37.709Z,10.67
2018-12-05T13:40:06.194Z,10.37
2018-12-05T13:42:34.090Z,8.77
2018-12-05T13:45:01.968Z,10.97
2018-12-05T13:47:29.876Z,11.60
2018-12-05T13:49:57.794Z,11.87
2018-12-05T13:52:25.659Z,17.27
2018-12-05T13:54:53.745Z,15.80
2018-12-05T13:57:21.760Z,23.40
2018-12-05T13:59:50.725Z,27.63
2018-12-05T14:02:18.810Z,20.93
2018-12-05T14:04:46.673Z,19.80
2018-12-05T14:07:14.551Z,21.33
2018-12-05T14:09:42.582Z,19.27
2018-12-05T14:12:14.618Z,23.23
2018-12-05T14:14:42.543Z,20.83
2018-12-05T14:17:10.428Z,25.47
2018-12-05T14:19:38.378Z,19.87
2018-12-05T14:22:06.347Z,23.30
2018-12-05T14:24:34.453Z,18.03
2018-12-05T14:27:02.474Z,17.83
2018-12-05T14:29:30.430Z,20.10
2018-12-05T14:31:58.349Z,21.23
2018-12-05T14:34:26.282Z,17.87
2018-12-05T14:36:54.344Z,17.20
2018-12-05T14:39:22.263Z,16.07
2018-12-05T14:41:50.334Z,19.00
2018-12-05T14:44:18.432Z,21.93
2018-12-05T14:46:46.353Z,19.97
2018-12-05T14:49:14.359Z,17.90
2018-12-05T14:51:42.518Z,14.80
2018-12-05T14:54:10.531Z,24.23
2018-12-05T14:56:38.659Z,17.60
2018-12-05T14:59:06.586Z,15.60
2018-12-05T15:01:34.487Z,18.50
2018-12-05T15:04:02.385Z,13.37
2018-12-05T15:06:30.310Z,17.53
2018-12-05T15:08:58.653Z,19.47
2018-12-05T15:11:26.590Z,16.43
2018-12-05T15:13:54.881Z,12.57
2018-12-05T15:16:22.740Z,15.27
2018-12-05T15:18:50.615Z,15.60
2018-12-05T15:21:18.516Z,17.33
2018-12-05T15:23:46.489Z,15.37
2018-12-05T15:26:14.548Z,20.57
2018-12-05T15:28:42.480Z,19.43
2018-12-05T15:31:10.374Z,17.37
2018-12-05T15:33:38.542Z,15.43
2018-12-05T15:36:06.648Z,27.57
2018-12-05T15:38:34.677Z,16.83
2018-12-05T15:41:02.522Z,14.53
2018-12-05T15:43:30.477Z,14.23
2018-12-05T15:45:58.872Z,19.70
2018-12-05T15:48:26.880Z,16.83
2018-12-05T15:50:54.803Z,18.30
2018-12-05T15:53:22.666Z,15.67
2018-12-05T15:55:51.846Z,16.97
2018-12-05T15:58:20.498Z,23.30
2018-12-05T16:00:48.630Z,18.83
2018-12-05T16:03:16.844Z,17.10
2018-12-05T16:05:44.866Z,15.73
2018-12-05T16:08:13.467Z,13.07
2018-12-05T16:10:41.386Z,17.90
2018-12-05T16:13:09.737Z,18.73
2018-12-05T16:15:38.399Z,20.57
2018-12-05T16:18:06.902Z,17.63
2018-12-05T16:20:34.817Z,15.73
2018-12-05T16:23:02.726Z,17.80
2018-12-05T16:25:30.655Z,15.00
2018-12-05T16:27:58.757Z,15.07
2018-12-05T16:30:27.094Z,15.40
2018-12-05T16:32:55.014Z,14.93
2018-12-05T16:35:22.993Z,16.90
2018-12-05T16:37:51.628Z,9.77
2018-12-05T16:40:20.527Z,12.90
2018-12-05T16:42:49.684Z,14.83
2018-12-05T16:45:18.290Z,12.30
2018-12-05T16:47:46.669Z,11.20
2018-12-05T16:50:14.620Z,16.33
2018-12-05T16:52:42.543Z,14.67
2018-12-05T16:55:10.512Z,14.23
2018-12-05T16:57:38.540Z,18.63
2018-12-05T17:00:07.416Z,16.33
2018-12-05T17:02:35.517Z,14.60
2018-12-05T17:05:03.470Z,17.23
2018-12-05T17:07:31.356Z,16.80
2018-12-05T17:09:59.235Z,11.87
2018-12-05T17:12:27.106Z,13.53
2018-12-05T17:14:56.103Z,14.33
2018-12-05T17:17:24.351Z,11.97
2018-12-05T17:19:52.607Z,14.13
2018-12-05T17:22:20.477Z,11.43
2018-12-05T17:24:48.361Z,10.50
2018-12-05T17:27:17.727Z,15.33
2018-12-05T17:29:46.134Z,12.17
2018-12-05T17:32:14.004Z,14.80
2018-12-05T17:34:41.837Z,11.40
2018-12-05T17:37:10.012Z,9.97
2018-12-05T17:39:38.076Z,11.90
2018-12-05T17:42:06.007Z,12.90
2018-12-05T17:44:33.854Z,9.60
2018-12-05T17:47:01.759Z,12.67
2018-12-05T17:49:29.637Z,11.17
2018-12-05T17:51:57.466Z,12.23
2018-12-05T17:54:25.504Z,14.90
2018-12-05T17:56:53.363Z,14.23
2018-12-05T17:59:21.237Z,13.23
2018-12-05T18:01:49.129Z,12.30
2018-12-05T18:04:16.983Z,16.13
2018-12-05T18:06:44.893Z,16.00
2018-12-05T18:09:12.794Z,20.20
2018-12-05T18:11:40.725Z,14.87
2018-12-05T18:14:08.588Z,16.47
2018-12-05T18:16:36.447Z,16.13
2018-12-05T18:19:04.282Z,13.30
2018-12-05T18:21:32.129Z,14.13
2018-12-05T18:24:00.047Z,18.03
2018-12-05T18:26:27.931Z,11.60
2018-12-05T18:28:55.825Z,16.43
2018-12-05T18:31:23.846Z,14.80
2018-12-05T18:33:51.697Z,13.83
2018-12-05T18:36:19.546Z,13.57
2018-12-05T18:38:47.405Z,15.13
2018-12-05T18:41:15.374Z,14.30
2018-12-05T18:43:43.545Z,17.17
2018-12-05T18:46:11.539Z,13.73
2018-12-05T18:48:39.420Z,19.43
2018-12-05T18:51:07.331Z,17.37
2018-12-05T18:53:35.259Z,11.67
2018-12-05T18:56:03.182Z,14.40
2018-12-05T18:58:31.046Z,15.27
2018-12-05T19:00:59.198Z,13.33
2018-12-05T19:03:27.078Z,15.40
2018-12-05T19:05:54.933Z,14.37
2018-12-05T19:08:22.809Z,14.33
2018-12-05T19:10:50.670Z,17.80
2018-12-05T19:13:18.598Z,15.30
2018-12-05T19:15:46.542Z,16.50
2018-12-05T19:18:14.467Z,18.17
2018-12-05T19:20:42.372Z,18.47
2018-12-05T19:23:10.200Z,14.87
2018-12-05T19:25:38.065Z,14.90
2018-12-05T19:28:05.939Z,20.67
2018-12-05T19:30:33.799Z,20.43
2018-12-05T19:33:01.648Z,17.37
2018-12-05T19:35:29.513Z,22.07
2018-12-05T19:37:57.455Z,18.53
2018-12-05T19:40:25.334Z,20.33
2018-12-05T19:42:53.470Z,16.37
2018-12-05T19:45:21.321Z,19.80
2018-12-05T19:47:49.396Z,19.70
2018-12-05T19:50:17.254Z,26.33
2018-12-05T19:52:45.204Z,22.87
2018-12-05T19:55:13.238Z,23.67
2018-12-05T19:57:41.126Z,24.07
2018-12-05T20:00:10.338Z,25.37
2018-12-05T20:02:39.229Z,21.20
2018-12-05T20:05:07.210Z,20.57
2018-12-05T20:07:35.084Z,19.93
2018-12-05T20:10:03.102Z,16.27
2018-12-05T20:12:31.132Z,20.63
2018-12-05T20:14:59.128Z,16.53
2018-12-05T20:17:27.051Z,17.97
2018-12-05T20:19:54.991Z,18.40
2018-12-05T20:22:23.253Z,15.63
2018-12-05T20:24:51.182Z,17.53
2018-12-05T20:27:19.040Z,13.47
2018-12-05T20:29:46.962Z,13.60
2018-12-05T20:32:14.873Z,15.80
2018-12-05T20:34:42.760Z,17.73
2018-12-05T20:37:10.883Z,12.23
2018-12-05T20:39:38.791Z,12.00
2018-12-05T20:42:07.013Z,12.77
2018-12-05T20:44:35.050Z,15.10
2018-12-05T20:47:03.020Z,16.27
2018-12-05T20:49:30.878Z,14.67
2018-12-05T20:51:58.997Z,15.23
2018-12-05T20:54:26.985Z,15.43
2018-12-05T20:56:54.962Z,16.10
2018-12-05T20:59:22.880Z,12.00
2018-12-05T21:01:51.415Z,13.13
2018-12-05T21:04:19.522Z,14.83
2018-12-05T21:06:47.379Z,15.10
2018-12-05T21:09:15.369Z,14.60
2018-12-05T21:11:43.281Z,14.37
2018-12-05T21:14:11.189Z,14.33
2018-12-05T21:16:39.291Z,13.27
2018-12-05T21:19:07.150Z,19.73
2018-12-05T21:21:35.061Z,19.10
2018-12-05T21:24:03.350Z,19.60
2018-12-05T21:26:32.108Z,17.50
2018-12-05T21:29:00.073Z,17.90
2018-12-05T21:31:28.125Z,16.87
2018-12-05T21:33:56.103Z,16.57
2018-12-05T21:36:24.014Z,17.20
2018-12-05T21:38:52.402Z,19.53
2018-12-05T21:41:20.417Z,18.57
2018-12-05T21:43:48.344Z,15.30
2018-12-05T21:46:16.509Z,19.17
2018-12-05T21:48:44.528Z,18.00
2018-12-05T21:51:12.691Z,16.50
2018-12-05T21:53:40.711Z,19.27
2018-12-05T21:56:08.765Z,21.67
2018-12-05T21:58:36.813Z,21.80
2018-12-05T22:01:04.717Z,21.20
2018-12-05T22:03:32.678Z,19.47
2018-12-05T22:06:00.801Z,25.10
2018-12-05T22:08:28.665Z,20.50
2018-12-05T22:10:56.526Z,18.47
2018-12-05T22:13:24.366Z,20.50
2018-12-05T22:15:52.201Z,23.00
2018-12-05T22:18:20.173Z,16.57
2018-12-05T22:20:48.033Z,23.13
2018-12-05T22:23:15.913Z,16.67
2018-12-05T22:25:43.783Z,23.87
2018-12-05T22:28:11.745Z,22.97
2018-12-05T22:30:39.806Z,22.97
2018-12-05T22:33:07.676Z,17.70
2018-12-05T22:35:35.538Z,22.93
2018-12-05T22:38:03.433Z,18.80
2018-12-05T22:40:31.277Z,22.80
2018-12-05T22:42:59.131Z,21.93
2018-12-05T22:45:26.997Z,23.67
2018-12-05T22:47:54.829Z,21.77
2018-12-05T22:50:22.678Z,20.73
2018-12-05T22:52:50.522Z,21.40
2018-12-05T22:55:18.342Z,18.40
2018-12-05T22:57:46.195Z,18.23
2018-12-05T23:00:18.285Z,22.57
2018-12-05T23:02:46.166Z,20.27
2018-12-05T23:05:14.122Z,21.70
2018-12-05T23:07:42.039Z,30.80
2018-12-05T23:10:10.003Z,22.30
2018-12-05T23:12:37.867Z,21.00
2018-12-05T23:15:05.783Z,27.10
2018-12-05T23:17:33.634Z,23.30
2018-12-05T23:20:01.459Z,28.13
2018-12-05T23:22:29.317Z,23.23
2018-12-05T23:24:57.149Z,21.80
2018-12-05T23:27:25.017Z,18.30
2018-12-05T23:29:52.874Z,21.83
2018-12-05T23:32:21.259Z,22.43
2018-12-05T23:34:49.097Z,23.10
2018-12-05T23:37:16.966Z,21.17
2018-12-05T23:39:44.836Z,21.53
2018-12-05T23:42:12.738Z,22.10
2018-12-05T23:44:40.574Z,22.90
2018-12-05T23:47:08.444Z,24.37
2018-12-05T23:49:36.302Z,18.50
2018-12-05T23:52:04.161Z,17.27
2018-12-05T23:54:32.014Z,21.93
2018-12-05T23:56:59.898Z,21.93
2018-12-05T23:59:27.738Z,20.77
